sensor_id;sensor_type;location;lat;lon;timestamp;P1;durP1;ratioP1;P2;durP2;ratioP2
40815;SDS011;26535;48.788;9.214;2023-03-20T00:00:35;3.80;;;2.30;;
40815;SDS011;26535;48.788;9.214;2023-03-20T00:03:03;4.22;;;2.22;;
40815;SDS011;26535;48.788;9.214;2023-03-20T00:05:30;3.22;;;2.15;;
40815;SDS011;26535;48.788;9.214;2023-03-20T00:07:56;3.75;;;1.80;;
40815;SDS011;26535;48.788;9.214;2023-03-20T00:10:28;3.50;;;1.90;;
40815;SDS011;26535;48.788;9.214;2023-03-20T00:12:58;2.72;;;1.77;;
40815;SDS011;26535;48.788;9.214;2023-03-20T00:15:28;3.67;;;2.00;;
40815;SDS011;26535;48.788;9.214;2023-03-20T00:18:00;3.58;;;2.30;;
40815;SDS011;26535;48.788;9.214;2023-03-20T00:20:26;3.58;;;2.05;;
40815;SDS011;26535;48.788;9.214;2023-03-20T00:22:52;3.55;;;2.53;;
40815;SDS011;26535;48.788;9.214;2023-03-20T00:25:20;4.05;;;2.38;;
40815;SDS011;26535;48.788;9.214;2023-03-20T00:27:48;5.03;;;2.97;;
40815;SDS011;26535;48.788;9.214;2023-03-20T00:32:46;3.17;;;2.33;;
40815;SDS011;26535;48.788;9.214;2023-03-20T00:35:28;4.28;;;2.42;;
40815;SDS011;26535;48.788;9.214;2023-03-20T00:37:55;3.97;;;2.60;;
40815;SDS011;26535;48.788;9.214;2023-03-20T00:40:29;4.15;;;2.70;;
40815;SDS011;26535;48.788;9.214;2023-03-20T00:42:59;3.58;;;2.33;;
40815;SDS011;26535;48.788;9.214;2023-03-20T00:45:28;5.70;;;2.83;;
40815;SDS011;26535;48.788;9.214;2023-03-20T00:47:55;4.30;;;2.40;;
40815;SDS011;26535;48.788;9.214;2023-03-20T00:50:26;5.57;;;2.72;;
40815;SDS011;26535;48.788;9.214;2023-03-20T00:52:54;4.53;;;2.47;;
40815;SDS011;26535;48.788;9.214;2023-03-20T00:55:22;4.82;;;2.60;;
40815;SDS011;26535;48.788;9.214;2023-03-20T00:57:55;5.28;;;2.85;;
40815;SDS011;26535;48.788;9.214;2023-03-20T06:01:44;4.78;;;1.05;;
40815;SDS011;26535;48.788;9.214;2023-03-20T06:04:20;6.28;;;1.70;;
40815;SDS011;26535;48.788;9.214;2023-03-20T06:07:07;12.00;;;3.90;;
40815;SDS011;26535;48.788;9.214;2023-03-20T06:09:35;12.15;;;3.75;;
40815;SDS011;26535;48.788;9.214;2023-03-20T06:12:05;12.82;;;3.53;;
40815;SDS011;26535;48.788;9.214;2023-03-20T06:14:31;7.60;;;2.42;;
40815;SDS011;26535;48.788;9.214;2023-03-20T06:17:00;6.25;;;1.38;;
40815;SDS011;26535;48.788;9.214;2023-03-20T06:19:26;5.38;;;1.58;;
40815;SDS011;26535;48.788;9.214;2023-03-20T06:21:52;5.63;;;1.20;;
40815;SDS011;26535;48.788;9.214;2023-03-20T06:24:19;4.40;;;1.10;;
40815;SDS011;26535;48.788;9.214;2023-03-20T06:26:45;4.15;;;1.60;;
40815;SDS011;26535;48.788;9.214;2023-03-20T06:29:12;5.47;;;1.48;;
40815;SDS011;26535;48.788;9.214;2023-03-20T06:31:38;4.95;;;1.88;;
40815;SDS011;26535;48.788;9.214;2023-03-20T06:34:06;6.28;;;1.80;;
40815;SDS011;26535;48.788;9.214;2023-03-20T06:36:38;5.10;;;0.90;;
40815;SDS011;26535;48.788;9.214;2023-03-20T06:39:10;2.65;;;1.02;;
40815;SDS011;26535;48.788;9.214;2023-03-20T06:41:35;8.65;;;2.67;;
40815;SDS011;26535;48.788;9.214;2023-03-20T06:44:05;6.68;;;1.98;;
40815;SDS011;26535;48.788;9.214;2023-03-20T06:46:51;3.92;;;1.50;;
40815;SDS011;26535;48.788;9.214;2023-03-20T06:49:17;5.15;;;1.30;;
40815;SDS011;26535;48.788;9.214;2023-03-20T06:51:44;4.20;;;1.40;;
40815;SDS011;26535;48.788;9.214;2023-03-20T06:54:14;4.03;;;1.40;;
40815;SDS011;26535;48.788;9.214;2023-03-20T06:56:40;6.60;;;2.03;;
40815;SDS011;26535;48.788;9.214;2023-03-20T06:59:06;6.40;;;1.88;;
40815;SDS011;26535;48.788;9.214;2023-03-20T07:01:32;4.88;;;1.70;;
40815;SDS011;26535;48.788;9.214;2023-03-20T07:03:57;3.53;;;1.17;;
40815;SDS011;26535;48.788;9.214;2023-03-20T07:06:29;3.20;;;1.23;;
40815;SDS011;26535;48.788;9.214;2023-03-20T07:08:55;3.33;;;1.25;;
40815;SDS011;26535;48.788;9.214;2023-03-20T07:11:21;2.20;;;0.80;;
40815;SDS011;26535;48.788;9.214;2023-03-20T07:13:47;3.83;;;0.80;;
40815;SDS011;26535;48.788;9.214;2023-03-20T07:16:26;1.67;;;0.40;;
40815;SDS011;26535;48.788;9.214;2023-03-20T07:18:52;1.35;;;0.50;;
40815;SDS011;26535;48.788;9.214;2023-03-20T07:21:19;2.90;;;0.40;;
40815;SDS011;26535;48.788;9.214;2023-03-20T07:23:47;3.05;;;0.73;;
40815;SDS011;26535;48.788;9.214;2023-03-20T07:26:13;1.35;;;0.50;;
40815;SDS011;26535;48.788;9.214;2023-03-20T07:28:39;1.85;;;0.50;;
40815;SDS011;26535;48.788;9.214;2023-03-20T07:31:24;1.67;;;0.52;;
40815;SDS011;26535;48.788;9.214;2023-03-20T07:34:16;2.30;;;0.60;;
40815;SDS011;26535;48.788;9.214;2023-03-20T07:36:43;1.23;;;0.63;;
40815;SDS011;26535;48.788;9.214;2023-03-20T07:39:10;2.33;;;0.88;;
40815;SDS011;26535;48.788;9.214;2023-03-20T07:41:41;1.42;;;0.60;;
40815;SDS011;26535;48.788;9.214;2023-03-20T07:44:08;2.60;;;0.60;;
40815;SDS011;26535;48.788;9.214;2023-03-20T07:46:46;3.53;;;2.25;;
40815;SDS011;26535;48.788;9.214;2023-03-20T07:49:14;2.17;;;1.30;;
40815;SDS011;26535;48.788;9.214;2023-03-20T07:51:44;1.75;;;1.00;;
40815;SDS011;26535;48.788;9.214;2023-03-20T07:54:10;1.50;;;0.73;;
40815;SDS011;26535;48.788;9.214;2023-03-20T07:56:36;2.30;;;0.55;;
40815;SDS011;26535;48.788;9.214;2023-03-20T07:59:02;1.80;;;1.00;;
40815;SDS011;26535;48.788;9.214;2023-03-20T08:01:28;1.30;;;0.60;;
40815;SDS011;26535;48.788;9.214;2023-03-20T08:03:54;3.10;;;1.00;;
40815;SDS011;26535;48.788;9.214;2023-03-20T08:06:20;2.65;;;0.90;;
40815;SDS011;26535;48.788;9.214;2023-03-20T08:08:45;1.95;;;0.90;;
40815;SDS011;26535;48.788;9.214;2023-03-20T08:11:11;3.45;;;1.48;;
40815;SDS011;26535;48.788;9.214;2023-03-20T08:13:37;2.65;;;0.80;;
40815;SDS011;26535;48.788;9.214;2023-03-20T08:16:03;3.55;;;1.45;;
40815;SDS011;26535;48.788;9.214;2023-03-20T08:18:30;3.45;;;0.80;;
40815;SDS011;26535;48.788;9.214;2023-03-20T08:20:55;3.15;;;1.13;;
40815;SDS011;26535;48.788;9.214;2023-03-20T08:23:21;2.28;;;1.10;;
40815;SDS011;26535;48.788;9.214;2023-03-20T08:25:50;2.08;;;0.90;;
40815;SDS011;26535;48.788;9.214;2023-03-20T08:28:18;3.08;;;1.40;;
40815;SDS011;26535;48.788;9.214;2023-03-20T08:30:45;2.63;;;1.02;;
40815;SDS011;26535;48.788;9.214;2023-03-20T08:33:11;2.20;;;0.60;;
40815;SDS011;26535;48.788;9.214;2023-03-20T08:35:38;3.35;;;0.70;;
40815;SDS011;26535;48.788;9.214;2023-03-20T08:38:03;1.92;;;1.00;;
40815;SDS011;26535;48.788;9.214;2023-03-20T08:40:29;1.95;;;0.68;;
40815;SDS011;26535;48.788;9.214;2023-03-20T08:42:55;2.80;;;0.80;;
40815;SDS011;26535;48.788;9.214;2023-03-20T08:45:22;1.80;;;0.60;;
40815;SDS011;26535;48.788;9.214;2023-03-20T08:47:50;4.07;;;0.57;;
40815;SDS011;26535;48.788;9.214;2023-03-20T08:50:19;1.42;;;0.50;;
40815;SDS011;26535;48.788;9.214;2023-03-20T08:52:45;2.42;;;0.77;;
40815;SDS011;26535;48.788;9.214;2023-03-20T08:55:11;2.65;;;0.75;;
40815;SDS011;26535;48.788;9.214;2023-03-20T08:57:38;2.03;;;0.60;;
40815;SDS011;26535;48.788;9.214;2023-03-20T09:00:05;2.25;;;0.60;;
40815;SDS011;26535;48.788;9.214;2023-03-20T09:02:32;1.60;;;0.50;;
40815;SDS011;26535;48.788;9.214;2023-03-20T09:04:58;2.05;;;0.50;;
40815;SDS011;26535;48.788;9.214;2023-03-20T09:07:25;2.63;;;0.95;;
40815;SDS011;26535;48.788;9.214;2023-03-20T09:09:51;1.95;;;0.68;;
40815;SDS011;26535;48.788;9.214;2023-03-20T09:12:20;1.40;;;0.50;;
40815;SDS011;26535;48.788;9.214;2023-03-20T09:14:46;3.35;;;0.60;;
40815;SDS011;26535;48.788;9.214;2023-03-20T09:17:11;2.55;;;0.65;;
40815;SDS011;26535;48.788;9.214;2023-03-20T09:19:37;1.55;;;0.55;;
40815;SDS011;26535;48.788;9.214;2023-03-20T09:22:10;1.70;;;0.50;;
40815;SDS011;26535;48.788;9.214;2023-03-20T09:24:37;1.88;;;0.60;;
40815;SDS011;26535;48.788;9.214;2023-03-20T09:27:03;1.50;;;0.60;;
40815;SDS011;26535;48.788;9.214;2023-03-20T09:29:29;1.13;;;0.45;;
40815;SDS011;26535;48.788;9.214;2023-03-20T09:31:54;0.80;;;0.40;;
40815;SDS011;26535;48.788;9.214;2023-03-20T09:34:20;1.83;;;0.63;;
40815;SDS011;26535;48.788;9.214;2023-03-20T09:36:46;1.55;;;0.80;;
40815;SDS011;26535;48.788;9.214;2023-03-20T09:39:12;1.33;;;0.50;;
40815;SDS011;26535;48.788;9.214;2023-03-20T09:41:38;1.80;;;0.60;;
40815;SDS011;26535;48.788;9.214;2023-03-20T09:52:23;2.08;;;0.73;;
40815;SDS011;26535;48.788;9.214;2023-03-20T09:55:09;1.48;;;0.63;;
40815;SDS011;26535;48.788;9.214;2023-03-20T09:57:40;1.52;;;0.55;;
40815;SDS011;26535;48.788;9.214;2023-03-20T10:00:12;1.70;;;0.60;;
40815;SDS011;26535;48.788;9.214;2023-03-20T10:05:23;1.60;;;0.50;;
40815;SDS011;26535;48.788;9.214;2023-03-20T10:07:57;0.98;;;0.30;;
40815;SDS011;26535;48.788;9.214;2023-03-20T10:10:31;1.90;;;0.95;;
40815;SDS011;26535;48.788;9.214;2023-03-20T10:13:26;2.15;;;0.82;;
40815;SDS011;26535;48.788;9.214;2023-03-20T10:18:28;1.70;;;0.90;;
40815;SDS011;26535;48.788;9.214;2023-03-20T10:21:03;1.80;;;0.70;;
40815;SDS011;26535;48.788;9.214;2023-03-20T10:23:34;1.83;;;0.60;;
40815;SDS011;26535;48.788;9.214;2023-03-20T10:26:07;1.77;;;0.68;;
40815;SDS011;26535;48.788;9.214;2023-03-20T10:28:42;1.55;;;0.57;;
40815;SDS011;26535;48.788;9.214;2023-03-20T10:31:23;1.73;;;0.82;;
40815;SDS011;26535;48.788;9.214;2023-03-20T10:42:36;5.80;;;0.70;;
40815;SDS011;26535;48.788;9.214;2023-03-20T10:48:26;2.40;;;0.60;;
40815;SDS011;26535;48.788;9.214;2023-03-20T10:51:00;3.47;;;1.00;;
40815;SDS011;26535;48.788;9.214;2023-03-20T10:53:28;3.80;;;1.40;;
40815;SDS011;26535;48.788;9.214;2023-03-20T11:01:53;3.33;;;1.70;;
40815;SDS011;26535;48.788;9.214;2023-03-20T11:04:19;2.88;;;1.42;;
40815;SDS011;26535;48.788;9.214;2023-03-20T11:09:36;4.03;;;1.60;;
40815;SDS011;26535;48.788;9.214;2023-03-20T11:12:02;5.57;;;1.40;;
40815;SDS011;26535;48.788;9.214;2023-03-20T11:14:37;3.55;;;1.48;;
40815;SDS011;26535;48.788;9.214;2023-03-20T11:17:04;2.95;;;1.30;;
40815;SDS011;26535;48.788;9.214;2023-03-20T11:19:31;4.22;;;2.25;;
40815;SDS011;26535;48.788;9.214;2023-03-20T11:22:22;3.85;;;1.98;;
40815;SDS011;26535;48.788;9.214;2023-03-20T11:27:18;4.13;;;2.22;;
40815;SDS011;26535;48.788;9.214;2023-03-20T11:29:52;4.40;;;2.83;;
40815;SDS011;26535;48.788;9.214;2023-03-20T11:32:30;5.03;;;3.00;;
40815;SDS011;26535;48.788;9.214;2023-03-20T11:35:10;4.72;;;2.85;;
40815;SDS011;26535;48.788;9.214;2023-03-20T11:37:45;6.78;;;2.65;;
40815;SDS011;26535;48.788;9.214;2023-03-20T11:40:31;6.05;;;2.83;;
40815;SDS011;26535;48.788;9.214;2023-03-20T11:45:34;7.00;;;3.03;;
40815;SDS011;26535;48.788;9.214;2023-03-20T11:48:20;4.00;;;2.33;;
40815;SDS011;26535;48.788;9.214;2023-03-20T11:51:03;3.33;;;2.28;;
40815;SDS011;26535;48.788;9.214;2023-03-20T11:53:36;5.78;;;2.70;;
40815;SDS011;26535;48.788;9.214;2023-03-20T11:56:07;4.47;;;2.47;;
40815;SDS011;26535;48.788;9.214;2023-03-20T11:59:13;6.28;;;3.58;;
40815;SDS011;26535;48.788;9.214;2023-03-20T12:01:39;4.35;;;2.95;;
40815;SDS011;26535;48.788;9.214;2023-03-20T12:04:19;5.85;;;2.92;;
40815;SDS011;26535;48.788;9.214;2023-03-20T12:06:52;5.00;;;2.85;;
40815;SDS011;26535;48.788;9.214;2023-03-20T12:14:52;7.32;;;3.70;;
40815;SDS011;26535;48.788;9.214;2023-03-20T12:17:33;5.53;;;3.13;;
40815;SDS011;26535;48.788;9.214;2023-03-20T12:20:10;7.55;;;3.60;;
40815;SDS011;26535;48.788;9.214;2023-03-20T12:22:39;7.22;;;3.45;;
40815;SDS011;26535;48.788;9.214;2023-03-20T12:33:30;4.45;;;3.00;;
40815;SDS011;26535;48.788;9.214;2023-03-20T12:36:02;6.03;;;3.03;;
40815;SDS011;26535;48.788;9.214;2023-03-20T12:38:30;4.80;;;2.78;;
40815;SDS011;26535;48.788;9.214;2023-03-20T12:41:05;4.80;;;2.78;;
40815;SDS011;26535;48.788;9.214;2023-03-20T12:43:41;4.97;;;2.72;;
40815;SDS011;26535;48.788;9.214;2023-03-20T12:46:36;6.50;;;3.40;;
40815;SDS011;26535;48.788;9.214;2023-03-20T12:54:39;5.95;;;2.88;;
40815;SDS011;26535;48.788;9.214;2023-03-20T12:57:31;6.55;;;3.33;;
40815;SDS011;26535;48.788;9.214;2023-03-20T13:00:29;5.47;;;2.65;;
40815;SDS011;26535;48.788;9.214;2023-03-20T13:03:33;6.63;;;2.72;;
40815;SDS011;26535;48.788;9.214;2023-03-20T13:14:47;4.82;;;2.80;;
40815;SDS011;26535;48.788;9.214;2023-03-20T13:17:26;5.40;;;2.85;;
40815;SDS011;26535;48.788;9.214;2023-03-20T13:20:18;4.90;;;3.10;;
40815;SDS011;26535;48.788;9.214;2023-03-20T13:22:59;4.25;;;2.63;;
40815;SDS011;26535;48.788;9.214;2023-03-20T13:28:48;5.50;;;3.08;;
40815;SDS011;26535;48.788;9.214;2023-03-20T13:31:55;4.57;;;2.78;;
40815;SDS011;26535;48.788;9.214;2023-03-20T13:34:48;4.40;;;2.38;;
40815;SDS011;26535;48.788;9.214;2023-03-20T13:37:43;4.30;;;2.80;;
40815;SDS011;26535;48.788;9.214;2023-03-20T13:40:20;5.95;;;2.50;;
40815;SDS011;26535;48.788;9.214;2023-03-20T13:43:12;4.43;;;2.33;;
40815;SDS011;26535;48.788;9.214;2023-03-20T13:45:46;6.47;;;2.55;;
40815;SDS011;26535;48.788;9.214;2023-03-20T13:48:36;3.90;;;2.28;;
40815;SDS011;26535;48.788;9.214;2023-03-20T13:51:08;5.07;;;2.50;;
40815;SDS011;26535;48.788;9.214;2023-03-20T13:54:00;3.10;;;2.30;;
40815;SDS011;26535;48.788;9.214;2023-03-20T13:56:51;4.07;;;2.40;;
40815;SDS011;26535;48.788;9.214;2023-03-20T14:02:01;4.07;;;2.10;;
40815;SDS011;26535;48.788;9.214;2023-03-20T14:04:32;3.80;;;1.85;;
40815;SDS011;26535;48.788;9.214;2023-03-20T14:06:59;3.22;;;1.90;;
40815;SDS011;26535;48.788;9.214;2023-03-20T14:09:29;3.88;;;2.10;;
40815;SDS011;26535;48.788;9.214;2023-03-20T14:12:04;4.13;;;1.90;;
40815;SDS011;26535;48.788;9.214;2023-03-20T14:17:24;3.75;;;1.75;;
40815;SDS011;26535;48.788;9.214;2023-03-20T14:19:52;3.60;;;2.00;;
40815;SDS011;26535;48.788;9.214;2023-03-20T14:22:20;3.95;;;2.03;;
40815;SDS011;26535;48.788;9.214;2023-03-20T14:27:25;5.20;;;2.70;;
40815;SDS011;26535;48.788;9.214;2023-03-20T14:29:52;3.95;;;2.60;;
40815;SDS011;26535;48.788;9.214;2023-03-20T14:40:21;4.45;;;1.70;;
40815;SDS011;26535;48.788;9.214;2023-03-20T14:43:14;5.05;;;2.40;;
40815;SDS011;26535;48.788;9.214;2023-03-20T14:48:33;3.42;;;1.60;;
40815;SDS011;26535;48.788;9.214;2023-03-20T14:53:57;3.90;;;2.05;;
40815;SDS011;26535;48.788;9.214;2023-03-20T14:56:45;4.47;;;2.10;;
40815;SDS011;26535;48.788;9.214;2023-03-20T14:59:13;3.53;;;1.65;;
40815;SDS011;26535;48.788;9.214;2023-03-20T15:04:27;2.97;;;1.88;;
40815;SDS011;26535;48.788;9.214;2023-03-20T15:09:50;4.22;;;1.95;;
40815;SDS011;26535;48.788;9.214;2023-03-20T15:12:25;2.92;;;1.88;;
40815;SDS011;26535;48.788;9.214;2023-03-20T15:15:00;4.15;;;1.90;;
40815;SDS011;26535;48.788;9.214;2023-03-20T15:17:40;3.67;;;2.03;;
40815;SDS011;26535;48.788;9.214;2023-03-20T15:20:14;3.97;;;2.00;;
40815;SDS011;26535;48.788;9.214;2023-03-20T15:22:55;6.07;;;2.40;;
40815;SDS011;26535;48.788;9.214;2023-03-20T15:25:24;4.18;;;2.20;;
40815;SDS011;26535;48.788;9.214;2023-03-20T15:27:56;4.78;;;2.40;;
40815;SDS011;26535;48.788;9.214;2023-03-20T15:30:22;4.10;;;2.42;;
40815;SDS011;26535;48.788;9.214;2023-03-20T15:32:50;3.80;;;2.35;;
40815;SDS011;26535;48.788;9.214;2023-03-20T15:35:19;4.30;;;1.90;;
40815;SDS011;26535;48.788;9.214;2023-03-20T15:37:47;4.53;;;1.90;;
40815;SDS011;26535;48.788;9.214;2023-03-20T15:40:28;4.25;;;2.22;;
40815;SDS011;26535;48.788;9.214;2023-03-20T15:45:25;5.20;;;2.20;;
40815;SDS011;26535;48.788;9.214;2023-03-20T15:48:26;4.70;;;1.95;;
40815;SDS011;26535;48.788;9.214;2023-03-20T15:50:56;5.60;;;1.80;;
40815;SDS011;26535;48.788;9.214;2023-03-20T15:56:00;4.32;;;2.03;;
40815;SDS011;26535;48.788;9.214;2023-03-20T15:58:29;4.45;;;2.00;;
40815;SDS011;26535;48.788;9.214;2023-03-20T16:00:56;2.88;;;1.67;;
40815;SDS011;26535;48.788;9.214;2023-03-20T16:03:25;3.75;;;1.80;;
40815;SDS011;26535;48.788;9.214;2023-03-20T16:05:52;3.63;;;2.03;;
40815;SDS011;26535;48.788;9.214;2023-03-20T16:08:29;3.15;;;1.70;;
40815;SDS011;26535;48.788;9.214;2023-03-20T16:11:05;3.20;;;1.55;;
40815;SDS011;26535;48.788;9.214;2023-03-20T16:13:38;5.78;;;2.25;;
40815;SDS011;26535;48.788;9.214;2023-03-20T16:16:07;4.53;;;1.73;;
40815;SDS011;26535;48.788;9.214;2023-03-20T16:18:37;3.10;;;1.30;;
40815;SDS011;26535;48.788;9.214;2023-03-20T16:21:08;2.60;;;1.00;;
40815;SDS011;26535;48.788;9.214;2023-03-20T16:23:43;3.10;;;1.00;;
40815;SDS011;26535;48.788;9.214;2023-03-20T16:26:15;2.55;;;0.80;;
40815;SDS011;26535;48.788;9.214;2023-03-20T16:28:44;2.65;;;0.70;;
40815;SDS011;26535;48.788;9.214;2023-03-20T16:31:17;2.33;;;0.60;;
40815;SDS011;26535;48.788;9.214;2023-03-20T16:33:47;2.97;;;0.90;;
40815;SDS011;26535;48.788;9.214;2023-03-20T16:36:17;3.05;;;0.73;;
40815;SDS011;26535;48.788;9.214;2023-03-20T16:38:55;2.03;;;0.70;;
40815;SDS011;26535;48.788;9.214;2023-03-20T16:41:32;1.75;;;0.80;;
40815;SDS011;26535;48.788;9.214;2023-03-20T16:44:19;1.58;;;0.70;;
40815;SDS011;26535;48.788;9.214;2023-03-20T16:46:56;2.17;;;0.75;;
40815;SDS011;26535;48.788;9.214;2023-03-20T16:51:59;2.47;;;0.88;;
40815;SDS011;26535;48.788;9.214;2023-03-20T16:54:28;2.78;;;1.10;;
40815;SDS011;26535;48.788;9.214;2023-03-20T16:56:55;2.85;;;0.80;;
40815;SDS011;26535;48.788;9.214;2023-03-20T16:59:22;1.83;;;0.70;;
40815;SDS011;26535;48.788;9.214;2023-03-20T17:01:49;2.15;;;0.70;;
40815;SDS011;26535;48.788;9.214;2023-03-20T17:04:23;2.17;;;1.05;;
40815;SDS011;26535;48.788;9.214;2023-03-20T17:06:53;2.33;;;1.00;;
40815;SDS011;26535;48.788;9.214;2023-03-20T17:09:24;2.25;;;1.00;;
40815;SDS011;26535;48.788;9.214;2023-03-20T17:12:03;2.00;;;0.98;;
40815;SDS011;26535;48.788;9.214;2023-03-20T17:14:40;2.03;;;0.75;;
40815;SDS011;26535;48.788;9.214;2023-03-20T17:17:16;1.70;;;0.73;;
40815;SDS011;26535;48.788;9.214;2023-03-20T17:19:44;2.47;;;0.75;;
40815;SDS011;26535;48.788;9.214;2023-03-20T17:22:15;3.47;;;1.30;;
40815;SDS011;26535;48.788;9.214;2023-03-20T17:24:43;2.25;;;1.10;;
40815;SDS011;26535;48.788;9.214;2023-03-20T17:27:11;2.28;;;1.00;;
40815;SDS011;26535;48.788;9.214;2023-03-20T17:29:38;2.35;;;0.90;;
40815;SDS011;26535;48.788;9.214;2023-03-20T17:32:12;2.47;;;0.95;;
40815;SDS011;26535;48.788;9.214;2023-03-20T17:34:42;1.67;;;0.80;;
40815;SDS011;26535;48.788;9.214;2023-03-20T17:37:13;3.60;;;1.15;;
40815;SDS011;26535;48.788;9.214;2023-03-20T17:39:41;2.05;;;0.95;;
40815;SDS011;26535;48.788;9.214;2023-03-20T17:42:17;2.17;;;0.80;;
40815;SDS011;26535;48.788;9.214;2023-03-20T17:44:44;2.15;;;1.00;;
40815;SDS011;26535;48.788;9.214;2023-03-20T17:47:13;2.63;;;1.15;;
40815;SDS011;26535;48.788;9.214;2023-03-20T17:49:40;3.10;;;1.52;;
40815;SDS011;26535;48.788;9.214;2023-03-20T17:52:16;2.90;;;1.27;;
40815;SDS011;26535;48.788;9.214;2023-03-20T17:54:43;2.78;;;1.15;;
40815;SDS011;26535;48.788;9.214;2023-03-20T17:57:27;2.50;;;1.25;;
40815;SDS011;26535;48.788;9.214;2023-03-20T17:59:57;2.80;;;1.00;;
40815;SDS011;26535;48.788;9.214;2023-03-20T18:02:23;3.00;;;0.95;;
40815;SDS011;26535;48.788;9.214;2023-03-20T18:04:49;2.45;;;1.25;;
40815;SDS011;26535;48.788;9.214;2023-03-20T18:07:15;2.17;;;0.90;;
40815;SDS011;26535;48.788;9.214;2023-03-20T18:09:42;2.70;;;1.00;;
40815;SDS011;26535;48.788;9.214;2023-03-20T18:12:10;2.05;;;0.93;;
40815;SDS011;26535;48.788;9.214;2023-03-20T18:14:37;2.17;;;0.90;;
40815;SDS011;26535;48.788;9.214;2023-03-20T18:17:03;3.67;;;1.90;;
40815;SDS011;26535;48.788;9.214;2023-03-20T18:19:29;3.22;;;2.08;;
40815;SDS011;26535;48.788;9.214;2023-03-20T18:21:55;3.85;;;1.80;;
40815;SDS011;26535;48.788;9.214;2023-03-20T18:24:24;6.72;;;2.03;;
40815;SDS011;26535;48.788;9.214;2023-03-20T18:26:51;3.38;;;2.10;;
40815;SDS011;26535;48.788;9.214;2023-03-20T18:29:18;5.07;;;2.30;;
40815;SDS011;26535;48.788;9.214;2023-03-20T18:31:45;4.75;;;2.47;;
40815;SDS011;26535;48.788;9.214;2023-03-20T18:34:11;4.15;;;2.20;;
40815;SDS011;26535;48.788;9.214;2023-03-20T18:36:37;6.43;;;2.30;;
40815;SDS011;26535;48.788;9.214;2023-03-20T18:39:03;5.53;;;2.63;;
40815;SDS011;26535;48.788;9.214;2023-03-20T18:41:31;4.25;;;2.50;;
40815;SDS011;26535;48.788;9.214;2023-03-20T18:43:57;7.30;;;2.47;;
40815;SDS011;26535;48.788;9.214;2023-03-20T18:46:28;4.18;;;2.10;;
40815;SDS011;26535;48.788;9.214;2023-03-20T18:48:53;7.18;;;2.72;;
40815;SDS011;26535;48.788;9.214;2023-03-20T18:51:19;4.30;;;2.25;;
40815;SDS011;26535;48.788;9.214;2023-03-20T18:53:45;5.13;;;2.38;;
40815;SDS011;26535;48.788;9.214;2023-03-20T18:56:18;5.30;;;2.47;;
40815;SDS011;26535;48.788;9.214;2023-03-20T18:58:47;4.57;;;2.30;;
40815;SDS011;26535;48.788;9.214;2023-03-20T19:01:13;3.50;;;2.05;;
40815;SDS011;26535;48.788;9.214;2023-03-20T19:03:40;5.10;;;2.60;;
40815;SDS011;26535;48.788;9.214;2023-03-20T19:06:17;3.55;;;1.60;;
40815;SDS011;26535;48.788;9.214;2023-03-20T19:08:45;4.15;;;2.10;;
40815;SDS011;26535;48.788;9.214;2023-03-20T19:11:12;4.35;;;2.33;;
40815;SDS011;26535;48.788;9.214;2023-03-20T19:13:45;4.25;;;1.77;;
40815;SDS011;26535;48.788;9.214;2023-03-20T19:16:20;5.45;;;2.20;;
40815;SDS011;26535;48.788;9.214;2023-03-20T19:18:50;4.68;;;2.10;;
40815;SDS011;26535;48.788;9.214;2023-03-20T19:21:17;2.63;;;1.33;;
40815;SDS011;26535;48.788;9.214;2023-03-20T19:23:43;5.10;;;1.65;;
40815;SDS011;26535;48.788;9.214;2023-03-20T19:26:15;4.03;;;1.75;;
40815;SDS011;26535;48.788;9.214;2023-03-20T19:28:43;4.90;;;1.77;;
40815;SDS011;26535;48.788;9.214;2023-03-20T19:31:09;2.38;;;1.20;;
40815;SDS011;26535;48.788;9.214;2023-03-20T19:33:35;3.08;;;1.70;;
40815;SDS011;26535;48.788;9.214;2023-03-20T19:36:02;3.42;;;1.98;;
40815;SDS011;26535;48.788;9.214;2023-03-20T19:38:29;4.07;;;1.80;;
40815;SDS011;26535;48.788;9.214;2023-03-20T19:40:56;3.30;;;1.80;;
40815;SDS011;26535;48.788;9.214;2023-03-20T19:43:22;3.85;;;1.70;;
40815;SDS011;26535;48.788;9.214;2023-03-20T19:45:49;3.33;;;1.60;;
40815;SDS011;26535;48.788;9.214;2023-03-20T19:48:21;3.63;;;1.30;;
40815;SDS011;26535;48.788;9.214;2023-03-20T19:50:50;3.65;;;1.60;;
40815;SDS011;26535;48.788;9.214;2023-03-20T19:53:18;4.00;;;1.50;;
40815;SDS011;26535;48.788;9.214;2023-03-20T19:55:50;4.47;;;1.60;;
40815;SDS011;26535;48.788;9.214;2023-03-20T19:58:17;3.17;;;1.75;;
40815;SDS011;26535;48.788;9.214;2023-03-20T20:00:43;2.88;;;1.65;;
40815;SDS011;26535;48.788;9.214;2023-03-20T20:03:16;3.72;;;1.60;;
40815;SDS011;26535;48.788;9.214;2023-03-20T20:05:43;4.70;;;1.77;;
40815;SDS011;26535;48.788;9.214;2023-03-20T20:08:10;3.45;;;1.58;;
40815;SDS011;26535;48.788;9.214;2023-03-20T20:10:37;2.78;;;1.38;;
40815;SDS011;26535;48.788;9.214;2023-03-20T20:15:43;3.88;;;1.48;;
40815;SDS011;26535;48.788;9.214;2023-03-20T20:18:12;3.58;;;1.40;;
40815;SDS011;26535;48.788;9.214;2023-03-20T20:20:42;3.65;;;1.60;;
40815;SDS011;26535;48.788;9.214;2023-03-20T20:23:13;6.30;;;1.92;;
40815;SDS011;26535;48.788;9.214;2023-03-20T20:25:40;4.45;;;1.85;;
40815;SDS011;26535;48.788;9.214;2023-03-20T20:28:08;4.07;;;1.85;;
40815;SDS011;26535;48.788;9.214;2023-03-20T20:30:35;5.93;;;2.80;;
40815;SDS011;26535;48.788;9.214;2023-03-20T20:33:05;3.63;;;1.92;;
40815;SDS011;26535;48.788;9.214;2023-03-20T20:35:31;3.50;;;2.05;;
40815;SDS011;26535;48.788;9.214;2023-03-20T20:37:57;5.57;;;2.30;;
40815;SDS011;26535;48.788;9.214;2023-03-20T20:40:23;3.90;;;2.30;;
40815;SDS011;26535;48.788;9.214;2023-03-20T20:42:54;4.13;;;2.43;;
40815;SDS011;26535;48.788;9.214;2023-03-20T20:45:25;4.25;;;2.00;;
40815;SDS011;26535;48.788;9.214;2023-03-20T20:47:52;5.38;;;2.45;;
40815;SDS011;26535;48.788;9.214;2023-03-20T20:50:19;5.20;;;2.67;;
40815;SDS011;26535;48.788;9.214;2023-03-20T20:52:48;6.47;;;2.80;;
40815;SDS011;26535;48.788;9.214;2023-03-20T20:55:15;4.80;;;2.53;;
40815;SDS011;26535;48.788;9.214;2023-03-20T20:57:42;5.10;;;2.88;;
40815;SDS011;26535;48.788;9.214;2023-03-20T21:00:08;7.03;;;3.85;;
40815;SDS011;26535;48.788;9.214;2023-03-20T21:02:35;6.85;;;3.53;;
40815;SDS011;26535;48.788;9.214;2023-03-20T21:05:05;6.80;;;3.42;;
40815;SDS011;26535;48.788;9.214;2023-03-20T21:07:33;4.35;;;2.70;;
40815;SDS011;26535;48.788;9.214;2023-03-20T21:09:59;5.03;;;2.35;;
40815;SDS011;26535;48.788;9.214;2023-03-20T21:12:26;7.68;;;2.83;;
40815;SDS011;26535;48.788;9.214;2023-03-20T21:14:51;5.45;;;2.80;;
40815;SDS011;26535;48.788;9.214;2023-03-20T21:17:17;6.15;;;2.88;;
40815;SDS011;26535;48.788;9.214;2023-03-20T21:19:43;4.43;;;2.50;;
40815;SDS011;26535;48.788;9.214;2023-03-20T21:22:11;7.80;;;3.20;;
40815;SDS011;26535;48.788;9.214;2023-03-20T21:24:40;5.97;;;3.03;;
40815;SDS011;26535;48.788;9.214;2023-03-20T21:27:07;7.38;;;3.10;;
40815;SDS011;26535;48.788;9.214;2023-03-20T21:29:36;7.38;;;3.00;;
40815;SDS011;26535;48.788;9.214;2023-03-20T21:32:02;6.35;;;2.60;;
40815;SDS011;26535;48.788;9.214;2023-03-20T21:34:29;7.30;;;3.08;;
40815;SDS011;26535;48.788;9.214;2023-03-20T21:36:56;4.88;;;2.58;;
40815;SDS011;26535;48.788;9.214;2023-03-20T21:39:22;5.50;;;2.30;;
40815;SDS011;26535;48.788;9.214;2023-03-20T21:41:49;4.60;;;2.50;;
40815;SDS011;26535;48.788;9.214;2023-03-20T21:44:15;5.53;;;2.78;;
40815;SDS011;26535;48.788;9.214;2023-03-20T21:46:41;6.78;;;3.47;;
40815;SDS011;26535;48.788;9.214;2023-03-20T21:49:07;7.72;;;3.38;;
40815;SDS011;26535;48.788;9.214;2023-03-20T21:51:33;5.55;;;3.50;;
40815;SDS011;26535;48.788;9.214;2023-03-20T21:53:59;6.93;;;3.45;;
40815;SDS011;26535;48.788;9.214;2023-03-20T21:56:25;5.72;;;3.30;;
40815;SDS011;26535;48.788;9.214;2023-03-20T21:58:51;6.28;;;3.47;;
40815;SDS011;26535;48.788;9.214;2023-03-20T22:01:16;5.65;;;3.42;;